Detall de PIREP

Printer-friendly versionPDF version

[2012/11/16 12:40:00]
Flight IATA:CT3129
Pilot Number:011
Company ICAO:CAT
Aircraft Type:F50/A
PAX:50
Aircraft Registration:DREAMWINGS
Departing Airport: LEZG
Destination Airport: LEVC
Alternate Airport:LEPA
Online: VATSIM
Route:GRAUS A34 SAURA
Flight Level:F170
No Slew and time accel
No pause
Crash detect
Detect pilot in Cockpit between each 30 and 45 minutes
12:40 Zero fuel Weight: 41542 Lbs, Fuel Weight: 2724 Lbs
12:40 VATSIM:LEZG 161200Z 08005KT 050V110 0700 R30R/0650V1300U FG VV002 11/11 Q1017 WS R12R WS R30R WS R30L
12:40 VATSIM:LEVC 161200Z 15003KT 080V210 9999 FEW025 19/13 Q1018 NOSIG
12:44 Parking Brakes off
12:54 Take-off
12:54 Take off Weight: 44161 Lbs
12:54 Wind: 083º @ 005 Knots Heading: 116º
12:54 POS N41º 39´ 55´´ W001º 01´ 52´´
12:54 Gear Up: 132 Knots
12:54 Flaps:3 at 132 Knots
12:55 Flaps:2 at 150 Knots
12:55 Flaps:1 at 154 Knots
12:55 Flaps:0 at 155 Knots
13:02 TOC
13:02 Fuel Weight: 2345 Lb
13:09 Wind:115º@008 Knots Heading: 086º Ground Speed: 270 Knots Altitude 17185 ft
13:24 Wind:185º@006 Knots Heading: 190º Ground Speed: 271 Knots Altitude 17204 ft
13:35 TOD
13:35 Fuel Weight: 1370 Lb
13:39 Wind:155º@011 Knots Heading: 196º Ground Speed: 226 Knots Altitude 10623 ft
13:53 Flaps:1 at 192 Knots
13:53 Flaps:2 at 183 Knots
13:54 Wind:159º@008 Knots Heading: 112º Ground Speed: 173 Knots Altitude 3133 ft
13:54 Flaps:3 at 168 Knots
13:55 Flaps:4 at 152 Knots
13:55 Gear Down: 152 Knots
13:55 Flaps:5 at 118 Knots
13:56 Flaps:6 at 101 Knots
13:58 TouchDown:Rate -100 ft/min Speed: 91 Knots
13:58 VATSIM:LEVC 161330Z VRB02KT 9999 FEW025 20/13 Q1016 NOSIG
13:58 Land
13:58 Wind:163º@005 Knots
13:58 Heading: 116º
13:58 Flight Duration: 01:04
13:58 Landing Weight: 42662 Lbs
13:58 POS N39º 29´ 22´´ W000º28´ 56´´
14:00 Parking brakes on
14:00 Block to Block Duration: 01:16
14:00 Final Fuel: 1102 Lbls
14:00 Spent Fuel: 1622 Lbls
14:00 Flight Length: 245 NM
14:00 TOD Land Length: 71 NM

Exportar CSV

Powered by Drupal - Modified by Danger4k